createdAt,value
2019-05-14T00:02:12.391Z,95.20
2019-05-14T00:04:42.551Z,94.90
2019-05-14T00:07:12.318Z,94.90
2019-05-14T00:09:42.211Z,94.80
2019-05-14T00:12:11.882Z,94.50
2019-05-14T00:14:43.831Z,94.70
2019-05-14T00:17:12.431Z,94.20
2019-05-14T00:19:41.979Z,94.10
2019-05-14T00:22:11.867Z,94.10
2019-05-14T00:24:41.858Z,94.20
2019-05-14T00:27:11.995Z,93.80
2019-05-14T00:29:41.918Z,94.20
2019-05-14T00:32:11.600Z,93.20
2019-05-14T00:34:42.489Z,93.40
2019-05-14T00:37:12.160Z,93.00
2019-05-14T00:39:41.894Z,92.40
2019-05-14T00:42:12.576Z,92.60
2019-05-14T00:44:53.682Z,92.70
2019-05-14T00:47:13.567Z,92.50
2019-05-14T00:49:43.033Z,92.20
2019-05-14T00:52:12.524Z,92.40
2019-05-14T00:54:42.378Z,92.20
2019-05-14T00:57:12.194Z,92.30
2019-05-14T00:59:41.980Z,92.20
2019-05-14T01:02:11.721Z,91.70
2019-05-14T01:04:42.765Z,91.00
2019-05-14T01:07:12.571Z,91.40
2019-05-14T01:09:42.358Z,91.60
2019-05-14T01:12:12.365Z,91.10
2019-05-14T01:14:42.595Z,90.80
2019-05-14T01:17:12.230Z,91.10
2019-05-14T01:19:42.404Z,90.20
2019-05-14T01:22:12.609Z,90.60
2019-05-14T01:24:42.311Z,90.30
2019-05-14T01:27:12.462Z,90.20
2019-05-14T01:29:42.735Z,90.00
2019-05-14T01:32:12.621Z,90.20
2019-05-14T01:34:42.372Z,90.50
2019-05-14T01:37:12.042Z,90.20
2019-05-14T01:39:42.171Z,90.30
2019-05-14T01:42:12.641Z,89.30
2019-05-14T01:44:42.204Z,89.60
2019-05-14T01:47:12.743Z,88.10
2019-05-14T01:49:42.924Z,88.30
2019-05-14T01:52:12.614Z,86.70
2019-05-14T01:54:42.855Z,87.50
2019-05-14T01:57:12.561Z,87.90
2019-05-14T01:59:42.918Z,87.50
2019-05-14T02:02:12.714Z,87.50
2019-05-14T02:04:42.924Z,85.80
2019-05-14T02:07:15.885Z,85.90
2019-05-14T02:09:43.781Z,87.00
2019-05-14T02:12:13.188Z,86.90
2019-05-14T02:14:42.666Z,85.60
2019-05-14T02:17:12.677Z,86.60
2019-05-14T02:19:42.760Z,86.20
2019-05-14T02:22:12.398Z,87.10
2019-05-14T02:24:42.042Z,86.00
2019-05-14T02:27:12.463Z,85.40
2019-05-14T02:29:42.031Z,85.10
2019-05-14T02:32:11.485Z,85.30
2019-05-14T02:34:41.001Z,85.40
2019-05-14T02:37:10.464Z,84.70
2019-05-14T02:39:41.135Z,84.70
2019-05-14T02:42:10.784Z,83.20
2019-05-14T02:44:41.097Z,84.00
2019-05-14T02:47:10.750Z,83.60
2019-05-14T02:49:40.311Z,83.30
2019-05-14T02:52:10.435Z,84.50
2019-05-14T02:54:40.691Z,83.30
2019-05-14T02:57:10.923Z,83.10
2019-05-14T02:59:40.661Z,83.60
2019-05-14T03:02:10.515Z,83.20
2019-05-14T03:04:40.157Z,83.40
2019-05-14T03:07:11.074Z,83.40
2019-05-14T03:09:40.895Z,82.80
2019-05-14T03:12:10.600Z,82.80
2019-05-14T03:14:40.322Z,82.70
2019-05-14T03:17:10.602Z,83.90
2019-05-14T03:19:40.970Z,83.70
2019-05-14T03:22:10.752Z,82.50
2019-05-14T03:24:40.263Z,82.90
2019-05-14T03:27:10.182Z,81.00
2019-05-14T03:29:40.523Z,81.40
2019-05-14T03:32:13.124Z,81.10
2019-05-14T03:34:43.602Z,82.40
2019-05-14T03:37:14.026Z,82.30
2019-05-14T03:39:43.847Z,81.30
2019-05-14T03:42:13.309Z,81.30
2019-05-14T03:44:42.798Z,82.20
2019-05-14T03:47:12.282Z,82.50
2019-05-14T03:49:41.753Z,81.90
2019-05-14T03:52:11.169Z,82.20
2019-05-14T03:54:41.534Z,82.30
2019-05-14T03:57:11.000Z,82.40
2019-05-14T03:59:40.844Z,82.00
2019-05-14T04:02:10.671Z,80.00
2019-05-14T04:04:40.179Z,80.20
2019-05-14T04:07:09.980Z,81.20
2019-05-14T04:09:40.821Z,80.90
2019-05-14T04:12:10.534Z,81.30
2019-05-14T04:14:40.886Z,81.80
2019-05-14T04:17:15.086Z,82.70
2019-05-14T04:19:41.546Z,82.10
2019-05-14T04:22:12.961Z,81.80
2019-05-14T04:24:42.716Z,81.30
2019-05-14T04:27:14.155Z,82.50
2019-05-14T04:29:43.692Z,85.20
2019-05-14T04:32:13.248Z,84.80
2019-05-14T04:34:42.726Z,84.90
2019-05-14T04:37:12.407Z,84.80
2019-05-14T04:39:42.095Z,84.30
2019-05-14T04:42:11.501Z,85.30
2019-05-14T04:44:41.028Z,86.40
2019-05-14T04:47:29.219Z,84.00
2019-05-14T04:49:41.590Z,83.60
2019-05-14T04:52:11.068Z,83.50
2019-05-14T04:54:40.470Z,85.70
2019-05-14T04:57:10.702Z,85.60
2019-05-14T04:59:40.433Z,85.90
2019-05-14T05:02:10.033Z,86.20
2019-05-14T05:04:41.044Z,82.50
2019-05-14T05:07:10.702Z,82.50
2019-05-14T05:09:40.327Z,82.70
2019-05-14T05:12:09.852Z,82.10
2019-05-14T05:14:39.278Z,82.00
2019-05-14T05:17:09.449Z,81.90
2019-05-14T05:19:39.907Z,82.00
2019-05-14T05:22:10.276Z,87.20
2019-05-14T05:24:39.749Z,88.40
2019-05-14T05:27:09.460Z,87.40
2019-05-14T05:29:39.401Z,87.20
2019-05-14T05:32:09.071Z,83.50
2019-05-14T05:34:38.955Z,81.80
2019-05-14T05:37:08.809Z,82.10
2019-05-14T05:39:38.787Z,82.50
2019-05-14T05:42:09.174Z,81.10
2019-05-14T05:44:39.541Z,82.10
2019-05-14T05:47:09.408Z,81.10
2019-05-14T05:49:38.925Z,81.50
2019-05-14T05:52:08.760Z,81.20
2019-05-14T05:54:38.587Z,80.00
2019-05-14T05:57:09.356Z,78.80
2019-05-14T05:59:39.429Z,79.20
2019-05-14T06:02:09.622Z,80.50
2019-05-14T06:04:39.523Z,79.10
2019-05-14T06:07:09.171Z,78.40
2019-05-14T06:09:38.659Z,79.70
2019-05-14T06:12:08.729Z,79.60
2019-05-14T06:14:38.550Z,81.00
2019-05-14T06:17:08.675Z,79.40
2019-05-14T06:19:38.471Z,80.00
2019-05-14T06:22:09.749Z,80.00
2019-05-14T06:24:39.214Z,80.80
2019-05-14T06:27:09.424Z,81.00
2019-05-14T06:29:39.096Z,80.60
2019-05-14T06:32:09.245Z,80.70
2019-05-14T06:34:39.036Z,80.90
2019-05-14T06:37:08.626Z,80.80
2019-05-14T06:39:39.080Z,81.70
2019-05-14T06:42:09.016Z,80.60
2019-05-14T06:44:38.814Z,81.30
2019-05-14T06:47:09.289Z,80.70
2019-05-14T06:49:39.061Z,79.40
2019-05-14T06:52:08.928Z,78.90
2019-05-14T06:54:38.904Z,78.10
2019-05-14T06:57:09.027Z,78.00
2019-05-14T06:59:38.612Z,78.40
2019-05-14T07:02:08.702Z,78.70
2019-05-14T07:04:39.401Z,79.30
2019-05-14T07:07:09.135Z,79.00
2019-05-14T07:09:38.654Z,78.60
2019-05-14T07:12:09.158Z,78.40
2019-05-14T07:14:39.072Z,77.20
2019-05-14T07:17:09.270Z,78.20
2019-05-14T07:19:38.794Z,79.30
2019-05-14T07:22:08.969Z,79.10
2019-05-14T07:24:40.553Z,79.40
2019-05-14T07:27:09.796Z,82.20
2019-05-14T07:29:39.388Z,80.00
2019-05-14T07:32:09.221Z,78.10
2019-05-14T07:34:39.049Z,75.90
2019-05-14T07:37:09.574Z,75.70
2019-05-14T07:39:39.116Z,77.20
2019-05-14T07:42:09.806Z,77.00
2019-05-14T07:44:39.659Z,74.00
2019-05-14T07:47:09.068Z,74.00
2019-05-14T07:49:38.757Z,74.70
2019-05-14T07:52:09.434Z,74.60
2019-05-14T07:54:39.164Z,75.40
2019-05-14T07:57:09.005Z,75.80
2019-05-14T07:59:38.508Z,72.00
2019-05-14T08:02:09.330Z,71.30
2019-05-14T08:04:39.020Z,72.50
2019-05-14T08:07:09.146Z,73.00
2019-05-14T08:09:39.128Z,71.80
2019-05-14T08:12:09.353Z,71.90
2019-05-14T08:14:54.910Z,70.50
2019-05-14T08:17:10.544Z,71.40
2019-05-14T08:19:39.996Z,71.10
2019-05-14T08:22:09.763Z,73.90
2019-05-14T08:24:39.337Z,71.30
2019-05-14T08:27:08.800Z,71.30
2019-05-14T08:29:40.051Z,72.60
2019-05-14T08:32:09.436Z,70.10
2019-05-14T08:34:39.168Z,68.30
2019-05-14T08:37:08.781Z,69.00
2019-05-14T08:39:39.196Z,68.40
2019-05-14T08:42:08.922Z,68.70
2019-05-14T08:44:39.062Z,69.30
2019-05-14T08:47:09.618Z,69.50
2019-05-14T08:49:46.168Z,70.00
2019-05-14T08:52:10.508Z,67.80
2019-05-14T08:54:39.890Z,68.90
2019-05-14T08:57:09.934Z,69.80
2019-05-14T08:59:39.865Z,68.60
2019-05-14T09:02:10.595Z,67.40
2019-05-14T09:04:43.107Z,67.10
2019-05-14T09:07:11.636Z,65.30
2019-05-14T09:09:41.130Z,66.20
2019-05-14T09:12:12.511Z,66.80
2019-05-14T09:14:41.871Z,65.10
2019-05-14T09:17:14.626Z,66.10
2019-05-14T09:19:57.566Z,66.60
2019-05-14T09:22:13.684Z,65.00
2019-05-14T09:24:43.187Z,64.70
2019-05-14T09:27:12.692Z,64.50
2019-05-14T09:29:42.110Z,64.30
2019-05-14T09:32:11.677Z,65.20
2019-05-14T09:34:41.214Z,64.10
2019-05-14T09:37:11.185Z,65.40
2019-05-14T09:39:40.669Z,62.90
2019-05-14T09:42:10.323Z,65.20
2019-05-14T09:44:39.716Z,64.40
2019-05-14T09:47:09.115Z,64.80
2019-05-14T09:49:39.079Z,64.10
2019-05-14T09:52:09.127Z,62.40
2019-05-14T09:54:43.303Z,64.20
2019-05-14T09:57:09.989Z,61.90
2019-05-14T09:59:39.451Z,62.40
2019-05-14T10:02:09.297Z,62.30
2019-05-14T10:04:39.360Z,62.60
2019-05-14T10:07:09.055Z,62.90
2019-05-14T10:09:39.243Z,63.80
2019-05-14T10:12:09.111Z,64.00
2019-05-14T10:14:39.499Z,64.40
2019-05-14T10:17:09.055Z,66.40
2019-05-14T10:19:39.526Z,68.90
2019-05-14T10:22:09.141Z,68.30
2019-05-14T10:24:38.949Z,68.80
2019-05-14T10:27:09.135Z,70.20
2019-05-14T10:29:39.350Z,71.90
2019-05-14T10:32:09.066Z,72.80
2019-05-14T10:34:38.524Z,72.50
2019-05-14T10:37:08.609Z,73.00
2019-05-14T10:39:39.172Z,73.40
2019-05-14T10:42:09.203Z,75.30
2019-05-14T10:44:39.006Z,75.30
2019-05-14T10:47:09.504Z,77.40
2019-05-14T10:49:39.121Z,77.30
2019-05-14T10:52:08.535Z,78.60
2019-05-14T10:54:40.248Z,78.80
2019-05-14T10:57:09.863Z,78.40
2019-05-14T10:59:39.608Z,80.20
2019-05-14T11:02:11.996Z,76.60
2019-05-14T11:04:40.170Z,74.90
2019-05-14T11:07:09.653Z,75.50
2019-05-14T11:09:39.095Z,75.40
2019-05-14T11:12:09.101Z,76.50
2019-05-14T11:14:38.981Z,77.40
2019-05-14T11:17:11.829Z,76.60
2019-05-14T11:19:39.906Z,77.50
2019-05-14T11:22:09.303Z,77.50
2019-05-14T11:24:38.800Z,77.60
2019-05-14T11:27:08.348Z,77.00
2019-05-14T11:29:38.746Z,77.20
2019-05-14T11:32:09.763Z,78.20
2019-05-14T11:34:39.545Z,78.80
2019-05-14T11:37:08.941Z,77.60
2019-05-14T11:39:38.457Z,76.80
2019-05-14T11:42:08.670Z,77.10
2019-05-14T11:44:38.479Z,76.30
2019-05-14T11:47:09.029Z,77.60
2019-05-14T11:49:38.665Z,76.90
2019-05-14T11:52:11.537Z,77.20
2019-05-14T11:54:41.069Z,77.10
2019-05-14T11:57:11.775Z,78.60
2019-05-14T11:59:42.479Z,79.10
2019-05-14T12:02:11.882Z,79.80
2019-05-14T12:04:41.356Z,80.90
2019-05-14T12:07:10.753Z,80.90
2019-05-14T12:09:40.243Z,81.80
2019-05-14T12:12:12.385Z,82.50
2019-05-14T12:14:40.900Z,83.80
2019-05-14T12:17:10.324Z,84.10
2019-05-14T12:19:43.403Z,84.70
2019-05-14T12:22:12.150Z,84.40
2019-05-14T12:24:41.880Z,83.80
2019-05-14T12:27:11.361Z,83.40
2019-05-14T12:29:40.817Z,83.60
2019-05-14T12:32:12.535Z,83.50
2019-05-14T12:34:41.465Z,83.70
2019-05-14T12:37:10.924Z,82.70
2019-05-14T12:39:40.415Z,81.60
2019-05-14T12:42:11.033Z,81.90
2019-05-14T12:44:41.076Z,81.60
2019-05-14T12:47:10.690Z,81.90
2019-05-14T12:49:40.162Z,81.00
2019-05-14T12:52:22.189Z,80.10
2019-05-14T12:54:40.891Z,78.80
2019-05-14T12:57:10.281Z,78.80
2019-05-14T12:59:39.754Z,78.50
2019-05-14T13:02:09.873Z,78.40
2019-05-14T13:04:39.591Z,75.70
2019-05-14T13:07:09.259Z,78.10
2019-05-14T13:09:38.846Z,77.10
2019-05-14T13:12:11.355Z,75.90
2019-05-14T13:14:39.663Z,75.60
2019-05-14T13:17:09.476Z,75.00
2019-05-14T13:19:39.011Z,75.60
2019-05-14T13:22:13.543Z,76.70
2019-05-14T13:24:39.706Z,75.40
2019-05-14T13:27:09.583Z,75.70
2019-05-14T13:29:39.231Z,76.20
2019-05-14T13:32:12.403Z,74.90
2019-05-14T13:34:40.030Z,75.10
2019-05-14T13:37:09.521Z,75.60
2019-05-14T13:39:39.934Z,75.30
2019-05-14T13:42:12.031Z,73.30
2019-05-14T13:44:40.904Z,72.70
2019-05-14T13:47:10.371Z,72.60
2019-05-14T13:49:39.714Z,72.50
2019-05-14T13:52:09.501Z,73.50
2019-05-14T13:54:39.508Z,70.40
2019-05-14T13:57:11.921Z,73.50
2019-05-14T13:59:43.961Z,71.80
2019-05-14T14:02:11.449Z,72.50
2019-05-14T14:04:40.841Z,72.20
2019-05-14T14:07:10.308Z,71.60
2019-05-14T14:09:39.899Z,72.20
2019-05-14T14:12:09.426Z,73.20
2019-05-14T14:14:39.765Z,72.30
2019-05-14T14:17:09.201Z,70.90
2019-05-14T14:19:38.994Z,71.60
2019-05-14T14:22:09.936Z,71.40
2019-05-14T14:24:39.750Z,72.40
2019-05-14T14:27:09.309Z,72.30
2019-05-14T14:29:39.673Z,72.60
2019-05-14T14:32:11.467Z,71.70
2019-05-14T14:34:41.344Z,71.30
2019-05-14T14:37:11.178Z,71.50
2019-05-14T14:39:40.652Z,70.80
2019-05-14T14:42:10.080Z,70.80
2019-05-14T14:44:39.481Z,69.30
2019-05-14T14:47:08.881Z,69.70
2019-05-14T14:49:43.145Z,69.80
2019-05-14T14:52:12.167Z,69.50
2019-05-14T14:54:40.749Z,68.80
2019-05-14T14:57:10.143Z,69.30
2019-05-14T14:59:39.628Z,69.00
2019-05-14T15:02:10.299Z,67.90
2019-05-14T15:04:40.094Z,66.10
2019-05-14T15:07:09.982Z,66.70
2019-05-14T15:09:40.612Z,67.30
2019-05-14T15:12:10.282Z,69.00
2019-05-14T15:14:40.088Z,67.90
2019-05-14T15:17:09.944Z,68.30
2019-05-14T15:19:39.859Z,67.70
2019-05-14T15:22:09.470Z,67.10
2019-05-14T15:24:38.964Z,69.00
2019-05-14T15:27:14.915Z,67.60
2019-05-14T15:29:42.893Z,69.60
2019-05-14T15:32:10.901Z,70.70
2019-05-14T15:34:40.377Z,72.40
2019-05-14T15:37:09.870Z,72.20
2019-05-14T15:39:39.342Z,71.50
2019-05-14T15:42:13.915Z,71.30
2019-05-14T15:44:48.856Z,75.20
2019-05-14T15:47:11.801Z,73.80
2019-05-14T15:50:09.146Z,72.50
2019-05-14T15:52:39.797Z,72.90
2019-05-14T15:55:10.936Z,74.30
2019-05-14T15:57:43.250Z,74.40
2019-05-14T16:00:13.558Z,74.70
2019-05-14T16:02:43.016Z,74.20
2019-05-14T16:05:12.694Z,75.30
2019-05-14T16:07:42.194Z,76.50
2019-05-14T16:10:12.170Z,77.70
2019-05-14T16:12:41.708Z,80.50
2019-05-14T16:15:11.354Z,77.30
2019-05-14T16:17:50.522Z,77.20
2019-05-14T16:20:12.042Z,77.40
2019-05-14T16:22:41.769Z,77.20
2019-05-14T16:25:11.248Z,78.10
2019-05-14T16:27:40.707Z,79.00
2019-05-14T16:30:10.445Z,79.20
2019-05-14T16:32:40.110Z,81.20
2019-05-14T16:35:09.788Z,80.80
2019-05-14T16:37:39.498Z,81.50
2019-05-14T16:40:09.961Z,84.10
2019-05-14T16:42:39.918Z,83.90
2019-05-14T16:45:09.605Z,83.50
2019-05-14T16:47:39.911Z,82.70
2019-05-14T16:50:10.665Z,82.60
2019-05-14T16:52:42.254Z,83.70
2019-05-14T16:55:23.050Z,82.40
2019-05-14T16:57:42.647Z,81.80
2019-05-14T17:00:12.266Z,81.60
2019-05-14T17:02:41.723Z,78.20
2019-05-14T17:05:11.192Z,80.00
2019-05-14T17:07:40.690Z,80.80
2019-05-14T17:10:10.173Z,81.20
2019-05-14T17:12:51.922Z,80.10
2019-05-14T17:15:10.853Z,80.00
2019-05-14T17:17:40.330Z,79.40
2019-05-14T17:20:09.754Z,80.90
2019-05-14T17:22:39.961Z,80.20
2019-05-14T17:25:09.925Z,80.60
2019-05-14T17:27:39.858Z,81.30
2019-05-14T17:30:09.386Z,81.10
2019-05-14T17:32:39.418Z,82.30
2019-05-14T17:35:10.710Z,82.70
2019-05-14T17:37:40.431Z,83.20
2019-05-14T17:40:09.883Z,84.10
2019-05-14T17:42:39.825Z,84.60
2019-05-14T17:45:09.312Z,85.40
2019-05-14T17:47:39.455Z,85.30
2019-05-14T17:50:08.973Z,85.50
2019-05-14T17:52:42.959Z,87.00
2019-05-14T17:55:12.069Z,88.40
2019-05-14T17:57:47.784Z,88.60
2019-05-14T18:00:12.816Z,89.50
2019-05-14T18:02:42.325Z,89.60
2019-05-14T18:05:11.807Z,89.30
2019-05-14T18:07:41.268Z,89.50
2019-05-14T18:10:10.761Z,89.70
2019-05-14T18:12:40.277Z,90.20
2019-05-14T18:15:09.925Z,90.10
2019-05-14T18:17:39.709Z,90.50
2019-05-14T18:20:09.368Z,90.70
2019-05-14T18:22:42.046Z,91.00
2019-05-14T18:25:10.322Z,91.10
2019-05-14T18:27:40.081Z,90.90
2019-05-14T18:30:09.805Z,91.20
2019-05-14T18:32:39.500Z,91.40
2019-05-14T18:35:08.975Z,92.00
2019-05-14T18:37:38.944Z,91.60
2019-05-14T18:40:09.264Z,91.80
2019-05-14T18:42:39.264Z,92.10
2019-05-14T18:45:10.009Z,92.20
2019-05-14T18:47:40.076Z,92.40
2019-05-14T18:50:09.657Z,92.70
2019-05-14T18:52:40.168Z,92.50
2019-05-14T18:55:09.902Z,92.80
2019-05-14T18:57:39.347Z,93.00
2019-05-14T19:00:09.366Z,93.00
2019-05-14T19:02:39.339Z,92.90
2019-05-14T19:05:08.934Z,93.30
2019-05-14T19:07:39.399Z,93.70
2019-05-14T19:10:09.572Z,93.90
2019-05-14T19:12:39.184Z,94.00
2019-05-14T19:15:09.012Z,93.90
2019-05-14T19:17:38.949Z,93.50
2019-05-14T19:20:09.488Z,93.90
2019-05-14T19:22:39.812Z,94.30
2019-05-14T19:25:09.596Z,94.40
2019-05-14T19:27:39.045Z,94.40
2019-05-14T19:30:08.697Z,94.80
2019-05-14T19:32:39.193Z,94.70
2019-05-14T19:35:08.995Z,94.80
2019-05-14T19:37:39.306Z,94.70
2019-05-14T19:40:09.414Z,94.50
2019-05-14T19:42:39.448Z,94.40
2019-05-14T19:45:09.801Z,94.80
2019-05-14T19:47:40.193Z,94.40
2019-05-14T19:50:11.123Z,94.50
2019-05-14T19:52:40.534Z,94.60
2019-05-14T19:55:10.018Z,95.20
2019-05-14T19:57:39.483Z,94.80
2019-05-14T20:00:09.346Z,94.80
2019-05-14T20:02:38.923Z,94.70
2019-05-14T20:05:09.245Z,95.00
2019-05-14T20:07:39.173Z,94.90
2019-05-14T20:10:08.989Z,95.10
2019-05-14T20:12:39.230Z,94.80
2019-05-14T20:15:09.757Z,94.80
2019-05-14T20:17:39.251Z,94.80
2019-05-14T20:20:09.202Z,95.00
2019-05-14T20:22:39.710Z,94.90
2019-05-14T20:25:09.665Z,94.70
2019-05-14T20:27:39.415Z,95.10
2019-05-14T20:30:09.635Z,95.40
2019-05-14T20:32:39.189Z,95.30
2019-05-14T20:35:09.272Z,95.20
2019-05-14T20:37:39.173Z,95.50
2019-05-14T20:40:08.677Z,96.20
2019-05-14T20:42:39.023Z,96.00
2019-05-14T20:45:09.125Z,95.80
2019-05-14T20:47:39.220Z,95.80
2019-05-14T20:50:09.230Z,96.10
2019-05-14T20:52:38.891Z,96.20
2019-05-14T20:55:09.504Z,95.70
2019-05-14T20:57:39.297Z,95.30
2019-05-14T21:00:11.493Z,95.70
2019-05-14T21:02:40.575Z,95.90
2019-05-14T21:05:13.652Z,96.20
2019-05-14T21:07:41.286Z,96.10
2019-05-14T21:10:10.741Z,95.90
2019-05-14T21:12:40.198Z,96.20
2019-05-14T21:15:09.919Z,96.30
2019-05-14T21:17:39.968Z,96.60
2019-05-14T21:20:09.432Z,96.70
2019-05-14T21:22:39.972Z,97.00
2019-05-14T21:25:12.567Z,97.30
2019-05-14T21:27:48.274Z,96.60
2019-05-14T21:30:12.352Z,96.50
2019-05-14T21:32:42.641Z,96.40
2019-05-14T21:35:12.452Z,96.90
2019-05-14T21:37:41.953Z,97.00
2019-05-14T21:40:11.401Z,96.60
2019-05-14T21:42:40.866Z,96.40
2019-05-14T21:45:10.360Z,95.80
2019-05-14T21:47:39.813Z,96.00
2019-05-14T21:50:10.039Z,96.40
2019-05-14T21:52:42.341Z,95.90
2019-05-14T21:55:11.049Z,95.90
2019-05-14T21:57:53.312Z,96.10
2019-05-14T22:00:30.136Z,95.70
2019-05-14T22:02:59.608Z,96.20
2019-05-14T22:05:29.076Z,96.00
2019-05-14T22:07:58.586Z,96.30
2019-05-14T22:10:28.757Z,96.30
2019-05-14T22:12:58.581Z,96.40
2019-05-14T22:15:29.272Z,96.50
2019-05-14T22:17:58.974Z,96.50
2019-05-14T22:20:29.059Z,96.50
2019-05-14T22:22:59.199Z,96.60
2019-05-14T22:25:28.726Z,96.50
2019-05-14T22:28:11.683Z,96.60
2019-05-14T22:30:29.570Z,96.90
2019-05-14T22:33:00.732Z,96.70
2019-05-14T22:35:31.270Z,96.60
2019-05-14T22:38:00.848Z,97.10
2019-05-14T22:40:30.297Z,96.90
2019-05-14T22:43:00.322Z,97.00
2019-05-14T22:45:29.926Z,97.00
2019-05-14T22:47:59.332Z,97.30
2019-05-14T22:50:29.350Z,97.20
2019-05-14T22:52:59.322Z,97.10
2019-05-14T22:55:31.195Z,97.20
2019-05-14T22:58:00.107Z,97.50
2019-05-14T23:00:29.583Z,97.30
2019-05-14T23:02:58.983Z,97.40
2019-05-14T23:05:29.147Z,97.40
2019-05-14T23:07:58.715Z,97.20
2019-05-14T23:10:28.182Z,97.30
2019-05-14T23:12:58.562Z,97.20
2019-05-14T23:15:28.958Z,96.90
2019-05-14T23:17:58.827Z,97.20
2019-05-14T23:20:29.334Z,97.20
2019-05-14T23:22:58.771Z,97.20
2019-05-14T23:25:29.172Z,97.20
2019-05-14T23:27:59.111Z,97.30
2019-05-14T23:30:34.068Z,97.40
2019-05-14T23:33:03.525Z,97.30
2019-05-14T23:35:32.839Z,97.40
2019-05-14T23:38:02.241Z,97.60
2019-05-14T23:40:31.723Z,97.60
2019-05-14T23:43:01.207Z,97.90
2019-05-14T23:45:30.668Z,97.80
2019-05-14T23:48:00.018Z,97.40
2019-05-14T23:50:29.477Z,97.60
2019-05-14T23:53:00.114Z,97.50
2019-05-14T23:55:29.618Z,98.00
2019-05-14T23:57:59.016Z,98.10
